createdAt,value
2019-03-26T00:02:22.816Z,3.00
2019-03-26T00:04:52.002Z,2.70
2019-03-26T00:07:21.190Z,3.03
2019-03-26T00:09:50.386Z,4.00
2019-03-26T00:12:19.557Z,5.63
2019-03-26T00:14:48.737Z,3.10
2019-03-26T00:17:17.952Z,2.60
2019-03-26T00:19:47.117Z,3.20
2019-03-26T00:22:16.312Z,2.93
2019-03-26T00:24:45.493Z,4.17
2019-03-26T00:27:14.658Z,3.10
2019-03-26T00:29:43.881Z,3.37
2019-03-26T00:32:13.054Z,2.97
2019-03-26T00:34:42.247Z,2.77
2019-03-26T00:37:11.484Z,3.00
2019-03-26T00:39:40.665Z,2.50
2019-03-26T00:42:09.893Z,3.13
2019-03-26T00:44:39.284Z,2.23
2019-03-26T00:47:08.452Z,3.03
2019-03-26T00:49:37.635Z,2.93
2019-03-26T00:52:06.889Z,2.60
2019-03-26T00:54:36.079Z,3.10
2019-03-26T00:57:05.273Z,2.30
2019-03-26T00:59:36.212Z,3.13
2019-03-26T01:02:05.381Z,2.90
2019-03-26T01:04:34.557Z,3.30
2019-03-26T01:07:03.828Z,2.87
2019-03-26T01:09:32.990Z,4.03
2019-03-26T01:12:02.164Z,3.40
2019-03-26T01:14:31.347Z,2.77
2019-03-26T01:17:00.517Z,3.03
2019-03-26T01:19:29.757Z,3.50
2019-03-26T01:21:58.956Z,2.60
2019-03-26T01:24:28.115Z,2.80
2019-03-26T01:26:57.313Z,3.70
2019-03-26T01:29:26.483Z,3.13
2019-03-26T01:31:55.655Z,2.67
2019-03-26T01:34:24.833Z,3.83
2019-03-26T01:36:54.058Z,3.17
2019-03-26T01:39:23.235Z,3.23
2019-03-26T01:41:52.418Z,3.10
2019-03-26T01:44:21.592Z,2.80
2019-03-26T01:46:50.757Z,3.50
2019-03-26T01:49:19.964Z,2.97
2019-03-26T01:51:49.133Z,3.20
2019-03-26T01:54:18.301Z,3.17
2019-03-26T01:56:47.500Z,3.60
2019-03-26T01:59:16.675Z,3.13
2019-03-26T02:01:45.933Z,3.13
2019-03-26T02:04:15.110Z,3.00
2019-03-26T02:06:44.276Z,2.93
2019-03-26T02:09:15.634Z,3.33
2019-03-26T02:11:44.820Z,3.30
2019-03-26T02:14:13.991Z,3.23
2019-03-26T02:16:43.196Z,3.70
2019-03-26T02:19:12.360Z,2.80
2019-03-26T02:21:41.612Z,3.47
2019-03-26T02:24:10.786Z,3.30
2019-03-26T02:26:39.955Z,3.77
2019-03-26T02:29:09.133Z,3.97
2019-03-26T02:31:38.299Z,3.10
2019-03-26T02:34:07.575Z,3.27
2019-03-26T02:36:36.759Z,3.03
2019-03-26T02:39:07.360Z,3.10
2019-03-26T02:41:38.125Z,3.00
2019-03-26T02:44:07.533Z,4.20
2019-03-26T02:46:36.721Z,3.97
2019-03-26T02:49:05.892Z,3.27
2019-03-26T02:51:35.080Z,4.07
2019-03-26T02:54:04.605Z,3.57
2019-03-26T02:56:33.775Z,3.17
2019-03-26T02:59:02.948Z,3.40
2019-03-26T03:01:32.118Z,3.97
2019-03-26T03:04:01.309Z,3.97
2019-03-26T03:06:30.488Z,3.90
2019-03-26T03:08:59.719Z,3.50
2019-03-26T03:11:28.948Z,3.50
2019-03-26T03:13:58.348Z,2.97
2019-03-26T03:16:27.632Z,4.00
2019-03-26T03:18:56.806Z,3.17
2019-03-26T03:21:27.795Z,3.37
2019-03-26T03:23:57.008Z,3.40
2019-03-26T03:26:26.180Z,4.00
2019-03-26T03:28:55.353Z,3.73
2019-03-26T03:31:24.657Z,3.20
2019-03-26T03:33:53.870Z,3.93
2019-03-26T03:36:23.056Z,4.23
2019-03-26T03:38:52.253Z,3.93
2019-03-26T03:41:21.427Z,4.50
2019-03-26T03:43:50.628Z,3.57
2019-03-26T03:46:19.867Z,3.57
2019-03-26T03:48:49.785Z,4.20
2019-03-26T03:51:22.242Z,3.57
2019-03-26T03:53:51.558Z,4.40
2019-03-26T03:56:22.422Z,3.60
2019-03-26T03:58:52.465Z,4.03
2019-03-26T04:01:21.646Z,4.60
2019-03-26T04:03:50.827Z,3.57
2019-03-26T04:06:19.997Z,4.17
2019-03-26T04:08:49.239Z,4.77
2019-03-26T04:11:18.423Z,3.30
2019-03-26T04:13:47.542Z,3.50
2019-03-26T04:16:16.717Z,3.67
2019-03-26T04:18:45.831Z,4.13
2019-03-26T04:21:15.372Z,3.63
2019-03-26T04:23:44.545Z,3.90
2019-03-26T04:26:13.788Z,3.07
2019-03-26T04:28:42.972Z,5.53
2019-03-26T04:31:12.171Z,4.20
2019-03-26T04:33:41.329Z,3.77
2019-03-26T04:36:24.582Z,3.20
2019-03-26T04:38:41.407Z,3.47
2019-03-26T04:41:10.575Z,3.70
2019-03-26T04:43:39.776Z,3.53
2019-03-26T04:46:08.934Z,3.47
2019-03-26T04:48:38.139Z,4.00
2019-03-26T04:51:07.323Z,3.23
2019-03-26T04:53:36.574Z,3.27
2019-03-26T04:56:05.932Z,3.40
2019-03-26T04:58:35.197Z,3.40
2019-03-26T05:01:04.454Z,3.37
2019-03-26T05:03:33.642Z,3.60
2019-03-26T05:06:02.743Z,3.20
2019-03-26T05:08:31.913Z,3.17
2019-03-26T05:11:01.105Z,3.10
2019-03-26T05:13:30.277Z,3.03
2019-03-26T05:15:59.397Z,3.30
2019-03-26T05:18:28.493Z,3.43
2019-03-26T05:20:57.664Z,2.63
2019-03-26T05:23:26.843Z,3.40
2019-03-26T05:25:56.855Z,2.87
2019-03-26T05:28:26.062Z,2.87
2019-03-26T05:30:55.171Z,2.63
2019-03-26T05:33:24.333Z,4.60
2019-03-26T05:35:53.580Z,3.23
2019-03-26T05:38:22.774Z,3.53
2019-03-26T05:40:51.988Z,3.33
2019-03-26T05:43:21.177Z,2.77
2019-03-26T05:45:50.349Z,2.90
2019-03-26T05:48:19.530Z,3.27
2019-03-26T05:50:48.843Z,3.27
2019-03-26T05:53:18.065Z,3.33
2019-03-26T05:55:47.328Z,2.60
2019-03-26T05:58:16.500Z,2.27
2019-03-26T06:00:45.667Z,2.50
2019-03-26T06:03:14.844Z,2.50
2019-03-26T06:05:44.089Z,2.63
2019-03-26T06:08:13.245Z,3.00
2019-03-26T06:10:42.413Z,3.17
2019-03-26T06:13:11.586Z,2.50
2019-03-26T06:15:40.757Z,2.80
2019-03-26T06:18:09.965Z,2.63
2019-03-26T06:20:39.167Z,2.67
2019-03-26T06:23:08.247Z,2.93
2019-03-26T06:25:37.438Z,2.43
2019-03-26T06:28:06.623Z,3.10
2019-03-26T06:30:35.824Z,2.60
2019-03-26T06:33:05.007Z,3.37
2019-03-26T06:35:34.187Z,3.13
2019-03-26T06:38:03.385Z,3.17
2019-03-26T06:40:32.493Z,2.57
2019-03-26T06:43:01.689Z,2.90
2019-03-26T06:45:30.864Z,2.93
2019-03-26T06:48:00.074Z,2.97
2019-03-26T06:50:29.332Z,3.10
2019-03-26T06:52:58.438Z,3.13
2019-03-26T06:55:27.609Z,2.93
2019-03-26T06:57:56.787Z,3.17
2019-03-26T07:00:35.356Z,2.60
2019-03-26T07:03:06.303Z,3.07
2019-03-26T07:05:35.510Z,3.23
2019-03-26T07:08:04.759Z,2.53
2019-03-26T07:10:33.921Z,3.00
2019-03-26T07:13:03.112Z,2.73
2019-03-26T07:15:32.307Z,3.10
2019-03-26T07:18:01.496Z,3.17
2019-03-26T07:20:30.682Z,3.97
2019-03-26T07:22:59.947Z,3.43
2019-03-26T07:25:29.096Z,3.07
2019-03-26T07:27:58.308Z,3.77
2019-03-26T07:30:39.200Z,3.43
2019-03-26T07:33:08.554Z,3.13
2019-03-26T07:35:37.801Z,2.73
2019-03-26T07:38:07.132Z,3.43
2019-03-26T07:40:36.402Z,3.27
2019-03-26T07:43:05.801Z,3.23
2019-03-26T07:45:35.071Z,3.13
2019-03-26T07:48:04.438Z,3.53
2019-03-26T07:50:33.681Z,3.17
2019-03-26T07:53:02.876Z,3.10
2019-03-26T07:55:32.134Z,3.17
2019-03-26T07:58:01.327Z,3.20
2019-03-26T08:00:32.957Z,2.90
2019-03-26T08:03:02.186Z,3.00
2019-03-26T08:05:31.364Z,3.47
2019-03-26T08:08:00.677Z,3.10
2019-03-26T08:10:29.932Z,3.27
2019-03-26T08:12:59.153Z,3.10
2019-03-26T08:15:28.349Z,3.60
2019-03-26T08:17:57.485Z,2.70
2019-03-26T08:20:26.677Z,3.53
2019-03-26T08:22:55.876Z,3.23
2019-03-26T08:25:25.089Z,3.17
2019-03-26T08:27:54.258Z,3.40
2019-03-26T08:30:23.440Z,3.90
2019-03-26T08:32:52.615Z,3.40
2019-03-26T08:35:21.805Z,3.07
2019-03-26T08:37:50.995Z,3.40
2019-03-26T08:40:23.247Z,2.97
2019-03-26T08:42:51.060Z,3.30
2019-03-26T08:45:20.275Z,3.87
2019-03-26T08:47:49.459Z,2.77
2019-03-26T08:50:18.699Z,2.77
2019-03-26T08:52:47.869Z,3.33
2019-03-26T08:55:17.036Z,3.00
2019-03-26T08:57:46.234Z,3.33
2019-03-26T09:00:15.821Z,3.20
2019-03-26T09:02:45.060Z,3.33
2019-03-26T09:05:14.478Z,2.80
2019-03-26T09:07:43.661Z,2.67
2019-03-26T09:10:14.037Z,3.57
2019-03-26T09:12:43.230Z,2.93
2019-03-26T09:15:14.439Z,3.50
2019-03-26T09:17:44.676Z,4.17
2019-03-26T09:20:14.406Z,3.07
2019-03-26T09:22:43.629Z,3.43
2019-03-26T09:25:13.040Z,2.60
2019-03-26T09:27:42.226Z,3.23
2019-03-26T09:30:13.330Z,2.67
2019-03-26T09:32:42.510Z,3.47
2019-03-26T09:35:12.338Z,2.70
2019-03-26T09:37:41.521Z,3.13
2019-03-26T09:40:11.035Z,2.73
2019-03-26T09:42:40.334Z,3.57
2019-03-26T09:45:11.994Z,3.20
2019-03-26T09:47:41.181Z,2.97
2019-03-26T09:50:11.653Z,3.37
2019-03-26T09:52:40.771Z,2.70
2019-03-26T09:55:10.395Z,3.53
2019-03-26T09:57:39.663Z,3.40
2019-03-26T10:00:12.644Z,3.03
2019-03-26T10:02:43.338Z,3.00
2019-03-26T10:05:13.145Z,2.63
2019-03-26T10:07:42.342Z,3.33
2019-03-26T10:10:13.202Z,3.20
2019-03-26T10:12:42.379Z,3.17
2019-03-26T10:15:12.111Z,3.53
2019-03-26T10:17:41.300Z,2.47
2019-03-26T10:20:10.628Z,3.17
2019-03-26T10:22:39.897Z,3.33
2019-03-26T10:25:11.252Z,2.80
2019-03-26T10:27:40.519Z,2.57
2019-03-26T10:30:12.577Z,2.67
2019-03-26T10:32:41.754Z,2.70
2019-03-26T10:35:11.176Z,2.57
2019-03-26T10:37:40.389Z,2.43
2019-03-26T10:40:11.851Z,2.60
2019-03-26T10:42:41.042Z,2.20
2019-03-26T10:45:10.362Z,2.60
2019-03-26T10:47:39.524Z,1.93
2019-03-26T10:50:09.339Z,1.90
2019-03-26T10:52:38.528Z,2.40
2019-03-26T10:55:07.785Z,2.10
2019-03-26T10:57:36.971Z,2.63
2019-03-26T11:00:06.905Z,2.13
2019-03-26T11:02:36.075Z,2.30
2019-03-26T11:05:08.568Z,1.83
2019-03-26T11:07:37.749Z,2.40
2019-03-26T11:10:08.267Z,2.20
2019-03-26T11:12:37.576Z,2.10
2019-03-26T11:15:08.695Z,2.53
2019-03-26T11:17:37.888Z,2.07
2019-03-26T11:20:08.127Z,3.13
2019-03-26T11:22:37.464Z,2.53
2019-03-26T11:25:11.880Z,2.47
2019-03-26T11:27:39.738Z,2.77
2019-03-26T11:30:10.069Z,2.90
2019-03-26T11:32:39.274Z,3.57
2019-03-26T11:35:08.984Z,2.20
2019-03-26T11:37:39.143Z,2.33
2019-03-26T11:40:09.051Z,3.13
2019-03-26T11:42:38.220Z,2.90
2019-03-26T11:45:09.286Z,3.10
2019-03-26T11:47:39.793Z,2.97
2019-03-26T11:50:10.346Z,2.73
2019-03-26T11:52:40.376Z,2.10
2019-03-26T11:55:11.319Z,2.63
2019-03-26T11:57:40.487Z,2.63
2019-03-26T12:00:13.306Z,2.50
2019-03-26T12:02:42.548Z,3.40
2019-03-26T12:05:12.250Z,3.20
2019-03-26T12:07:42.906Z,2.87
2019-03-26T12:10:13.558Z,2.83
2019-03-26T12:12:42.755Z,3.30
2019-03-26T12:15:12.600Z,3.00
2019-03-26T12:17:41.783Z,3.07
2019-03-26T12:20:11.523Z,2.37
2019-03-26T12:22:40.968Z,3.67
2019-03-26T12:25:10.688Z,2.97
2019-03-26T12:27:39.875Z,3.20
2019-03-26T12:30:09.393Z,2.23
2019-03-26T12:32:40.937Z,2.90
2019-03-26T12:35:11.434Z,2.97
2019-03-26T12:37:40.618Z,2.83
2019-03-26T12:40:09.993Z,3.07
2019-03-26T12:42:39.176Z,3.10
2019-03-26T12:45:08.696Z,2.70
2019-03-26T12:47:37.897Z,3.00
2019-03-26T12:50:07.793Z,3.07
2019-03-26T12:52:36.965Z,2.87
2019-03-26T12:55:06.894Z,2.70
2019-03-26T12:57:36.096Z,2.77
2019-03-26T13:00:07.296Z,2.80
2019-03-26T13:02:36.518Z,2.53
2019-03-26T13:05:08.901Z,2.83
2019-03-26T13:07:38.040Z,2.87
2019-03-26T13:10:13.731Z,2.80
2019-03-26T13:12:38.958Z,2.77
2019-03-26T13:15:08.388Z,2.97
2019-03-26T13:17:37.578Z,3.00
2019-03-26T13:20:07.600Z,2.87
2019-03-26T13:22:36.816Z,3.83
2019-03-26T13:25:08.349Z,2.53
2019-03-26T13:27:37.604Z,3.00
2019-03-26T13:30:07.835Z,3.27
2019-03-26T13:32:37.014Z,2.70
2019-03-26T13:35:08.888Z,3.10
2019-03-26T13:37:38.108Z,3.37
2019-03-26T13:40:08.300Z,3.13
2019-03-26T13:42:37.602Z,3.13
2019-03-26T13:45:07.731Z,3.20
2019-03-26T13:47:36.881Z,3.23
2019-03-26T13:50:06.931Z,3.20
2019-03-26T13:52:36.232Z,2.90
2019-03-26T13:55:09.330Z,3.20
2019-03-26T13:57:38.512Z,3.37
2019-03-26T14:00:09.088Z,3.00
2019-03-26T14:02:38.264Z,3.07
2019-03-26T14:05:25.781Z,3.63
2019-03-26T14:07:55.054Z,2.80
2019-03-26T14:10:24.313Z,3.20
2019-03-26T14:12:53.499Z,3.63
2019-03-26T14:15:22.690Z,3.40
2019-03-26T14:17:51.896Z,3.03
2019-03-26T14:20:21.217Z,3.00
2019-03-26T14:22:50.394Z,4.07
2019-03-26T14:25:19.591Z,2.80
2019-03-26T14:27:48.796Z,3.23
2019-03-26T14:30:21.055Z,2.90
2019-03-26T14:32:50.797Z,2.77
2019-03-26T14:35:20.157Z,2.97
2019-03-26T14:37:51.400Z,3.57
2019-03-26T14:40:20.220Z,2.97
2019-03-26T14:42:49.426Z,2.93
2019-03-26T14:45:18.667Z,2.50
2019-03-26T14:47:47.844Z,2.97
2019-03-26T14:50:17.145Z,2.97
2019-03-26T14:52:46.316Z,3.73
2019-03-26T14:55:15.613Z,3.30
2019-03-26T14:57:44.812Z,3.93
2019-03-26T15:00:14.350Z,3.47
2019-03-26T15:02:43.552Z,3.37
2019-03-26T15:05:12.871Z,2.90
2019-03-26T15:07:42.210Z,2.90
2019-03-26T15:10:11.641Z,3.23
2019-03-26T15:12:40.853Z,3.57
2019-03-26T15:15:10.175Z,3.57
2019-03-26T15:17:39.357Z,3.90
2019-03-26T15:20:09.046Z,3.57
2019-03-26T15:22:38.241Z,3.60
2019-03-26T15:25:07.509Z,3.63
2019-03-26T15:27:36.682Z,3.23
2019-03-26T15:30:08.409Z,3.10
2019-03-26T15:32:37.519Z,3.27
2019-03-26T15:35:07.349Z,3.43
2019-03-26T15:37:36.532Z,4.00
2019-03-26T15:40:07.643Z,4.10
2019-03-26T15:42:36.835Z,4.47
2019-03-26T15:45:08.083Z,5.57
2019-03-26T15:47:37.215Z,5.77
2019-03-26T15:50:07.143Z,5.17
2019-03-26T15:52:36.323Z,5.73
2019-03-26T15:55:06.462Z,4.87
2019-03-26T15:57:35.643Z,5.27
2019-03-26T16:00:08.097Z,5.67
2019-03-26T16:02:37.697Z,5.97
2019-03-26T16:05:08.423Z,6.30
2019-03-26T16:07:37.623Z,7.00
2019-03-26T16:10:08.766Z,6.67
2019-03-26T16:12:41.212Z,7.27
2019-03-26T16:15:09.007Z,7.10
2019-03-26T16:17:38.191Z,8.13
2019-03-26T16:20:08.642Z,7.83
2019-03-26T16:22:37.783Z,8.40
2019-03-26T16:25:07.530Z,8.00
2019-03-26T16:27:36.712Z,7.90
2019-03-26T16:30:07.968Z,6.93
2019-03-26T16:32:37.222Z,8.37
2019-03-26T16:35:06.944Z,8.27
2019-03-26T16:37:36.150Z,8.03
2019-03-26T16:40:08.387Z,8.43
2019-03-26T16:42:37.595Z,7.47
2019-03-26T16:45:08.593Z,7.83
2019-03-26T16:47:37.790Z,8.33
2019-03-26T16:50:08.947Z,9.23
2019-03-26T16:52:38.172Z,8.50
2019-03-26T16:55:07.621Z,9.67
2019-03-26T16:57:36.930Z,8.80
2019-03-26T17:00:09.975Z,8.60
2019-03-26T17:02:40.971Z,8.70
2019-03-26T17:05:10.583Z,8.30
2019-03-26T17:07:39.805Z,8.13
2019-03-26T17:10:09.531Z,8.33
2019-03-26T17:12:38.726Z,8.10
2019-03-26T17:15:08.801Z,7.17
2019-03-26T17:17:37.970Z,6.93
2019-03-26T17:20:07.929Z,6.43
2019-03-26T17:22:37.117Z,6.37
2019-03-26T17:25:08.104Z,5.93
2019-03-26T17:27:37.339Z,7.40
2019-03-26T17:30:07.609Z,7.00
2019-03-26T17:32:36.813Z,7.03
2019-03-26T17:35:07.227Z,5.83
2019-03-26T17:37:36.458Z,5.73
2019-03-26T17:40:06.574Z,5.73
2019-03-26T17:42:35.811Z,6.20
2019-03-26T17:45:06.283Z,6.83
2019-03-26T17:47:35.455Z,6.53
2019-03-26T17:50:06.977Z,6.53
2019-03-26T17:52:36.169Z,7.23
2019-03-26T17:55:07.667Z,6.57
2019-03-26T17:57:36.896Z,6.93
2019-03-26T18:00:15.964Z,7.10
2019-03-26T18:02:45.157Z,7.17
2019-03-26T18:05:26.126Z,7.33
2019-03-26T18:07:55.962Z,6.53
2019-03-26T18:10:25.200Z,5.97
2019-03-26T18:12:54.402Z,6.60
2019-03-26T18:15:23.582Z,6.47
2019-03-26T18:17:52.756Z,6.60
2019-03-26T18:20:32.600Z,6.43
2019-03-26T18:22:53.011Z,7.20
2019-03-26T18:25:22.236Z,8.10
2019-03-26T18:27:51.433Z,6.87
2019-03-26T18:30:20.648Z,6.90
2019-03-26T18:32:49.838Z,7.13
2019-03-26T18:35:19.025Z,6.57
2019-03-26T18:37:48.209Z,6.37
2019-03-26T18:40:17.546Z,7.47
2019-03-26T18:42:46.749Z,6.13
2019-03-26T18:45:16.318Z,6.77
2019-03-26T18:47:45.664Z,6.67
2019-03-26T18:50:15.175Z,6.27
2019-03-26T18:52:44.409Z,6.30
2019-03-26T18:55:13.859Z,7.10
2019-03-26T18:57:43.058Z,7.00
2019-03-26T19:00:15.028Z,6.63
2019-03-26T19:02:44.322Z,7.43
2019-03-26T19:05:13.969Z,7.13
2019-03-26T19:07:43.158Z,6.50
2019-03-26T19:10:24.045Z,6.80
2019-03-26T19:12:57.116Z,6.03
2019-03-26T19:15:24.563Z,6.30
2019-03-26T19:17:53.826Z,6.40
2019-03-26T19:20:23.018Z,7.73
2019-03-26T19:22:52.291Z,6.73
2019-03-26T19:25:21.484Z,6.93
2019-03-26T19:27:50.698Z,6.90
2019-03-26T19:30:19.998Z,7.07
2019-03-26T19:32:49.150Z,6.87
2019-03-26T19:35:18.337Z,5.80
2019-03-26T19:37:47.511Z,7.53
2019-03-26T19:40:16.796Z,7.70
2019-03-26T19:42:45.975Z,6.83
2019-03-26T19:45:15.300Z,6.37
2019-03-26T19:47:44.560Z,6.57
2019-03-26T19:50:14.884Z,6.20
2019-03-26T19:52:44.178Z,6.43
2019-03-26T19:55:13.529Z,6.97
2019-03-26T19:57:42.751Z,7.77
2019-03-26T20:00:16.782Z,7.20
2019-03-26T20:02:45.973Z,6.33
2019-03-26T20:05:15.311Z,6.93
2019-03-26T20:07:44.593Z,6.37
2019-03-26T20:10:14.539Z,6.10
2019-03-26T20:12:43.734Z,7.30
2019-03-26T20:15:14.095Z,7.93
2019-03-26T20:17:43.262Z,6.57
2019-03-26T20:20:13.589Z,6.70
2019-03-26T20:22:42.825Z,6.10
2019-03-26T20:25:13.189Z,5.70
2019-03-26T20:27:42.376Z,8.03
2019-03-26T20:30:13.434Z,5.87
2019-03-26T20:32:42.632Z,5.60
2019-03-26T20:35:13.191Z,5.73
2019-03-26T20:37:42.363Z,4.67
2019-03-26T20:40:11.996Z,5.93
2019-03-26T20:42:41.193Z,5.57
2019-03-26T20:45:14.257Z,6.07
2019-03-26T20:47:42.539Z,5.50
2019-03-26T20:50:13.682Z,5.70
2019-03-26T20:52:43.045Z,5.57
2019-03-26T20:55:13.245Z,5.63
2019-03-26T20:57:43.460Z,6.00
2019-03-26T21:00:13.896Z,4.63
2019-03-26T21:02:43.124Z,5.27
2019-03-26T21:05:13.145Z,5.07
2019-03-26T21:07:42.338Z,4.00
2019-03-26T21:10:11.563Z,4.27
2019-03-26T21:12:40.779Z,4.50
2019-03-26T21:15:10.510Z,5.10
2019-03-26T21:17:39.794Z,3.63
2019-03-26T21:20:10.156Z,3.83
2019-03-26T21:22:39.291Z,4.20
2019-03-26T21:25:10.627Z,4.00
2019-03-26T21:27:39.990Z,4.67
2019-03-26T21:30:15.499Z,4.40
2019-03-26T21:32:42.828Z,3.80
2019-03-26T21:35:13.472Z,4.23
2019-03-26T21:37:42.689Z,4.43
2019-03-26T21:40:13.593Z,4.20
2019-03-26T21:42:42.892Z,4.20
2019-03-26T21:45:12.886Z,3.67
2019-03-26T21:47:42.064Z,4.10
2019-03-26T21:50:11.578Z,3.60
2019-03-26T21:52:40.748Z,3.63
2019-03-26T21:55:13.409Z,4.10
2019-03-26T21:57:41.653Z,4.23
2019-03-26T22:00:12.608Z,3.67
2019-03-26T22:02:41.791Z,3.40
2019-03-26T22:05:11.289Z,3.87
2019-03-26T22:07:40.465Z,4.33
2019-03-26T22:10:10.789Z,3.83
2019-03-26T22:12:39.981Z,3.77
2019-03-26T22:15:10.601Z,3.97
2019-03-26T22:17:39.735Z,3.37
2019-03-26T22:20:11.864Z,3.50
2019-03-26T22:22:41.055Z,3.13
2019-03-26T22:25:10.332Z,3.13
2019-03-26T22:27:39.493Z,2.77
2019-03-26T22:30:10.433Z,3.50
2019-03-26T22:32:39.625Z,4.00
2019-03-26T22:35:10.181Z,3.33
2019-03-26T22:37:39.377Z,3.20
2019-03-26T22:40:09.288Z,2.73
2019-03-26T22:42:38.564Z,3.00
2019-03-26T22:45:10.547Z,2.93
2019-03-26T22:47:39.999Z,3.13
2019-03-26T22:50:10.521Z,3.10
2019-03-26T22:52:39.693Z,2.80
2019-03-26T22:55:10.563Z,3.20
2019-03-26T22:57:39.796Z,2.90
2019-03-26T23:00:17.237Z,3.10
2019-03-26T23:02:46.480Z,3.57
2019-03-26T23:05:16.363Z,3.13
2019-03-26T23:07:45.623Z,2.93
2019-03-26T23:10:16.929Z,4.27
2019-03-26T23:12:46.255Z,3.80
2019-03-26T23:15:25.953Z,4.27
2019-03-26T23:17:55.156Z,3.90
2019-03-26T23:20:24.336Z,3.57
2019-03-26T23:22:53.507Z,4.47
2019-03-26T23:25:22.779Z,3.60
2019-03-26T23:27:51.980Z,4.30
2019-03-26T23:30:21.233Z,3.83
2019-03-26T23:32:50.429Z,3.27
2019-03-26T23:35:19.668Z,4.40
2019-03-26T23:37:48.835Z,3.47
2019-03-26T23:40:18.073Z,3.93
2019-03-26T23:42:47.247Z,3.67
2019-03-26T23:45:16.615Z,3.83
2019-03-26T23:47:45.799Z,3.00
2019-03-26T23:50:15.057Z,4.07
2019-03-26T23:52:44.301Z,3.17
2019-03-26T23:55:13.592Z,3.50
2019-03-26T23:57:42.889Z,3.53
